Time;durP1;ratioP1;P1;durP2;ratioP2;P2;SDS_P1;SDS_P2;PMS_P1;PMS_P2;Temp;Humidity;BMP_temperature;BMP_pressure;BME280_temperature;BME280_humidity;BME280_pressure;Samples;Min_cycle;Max_cycle;Signal;HPM_P1;HPM_P2
2023/02/04 00:00:16;;;;;;;27.13;4.45;;;7.80;99.90;;;;;;4920832;28;95691;-73
2023/02/04 00:02:43;;;;;;;24.85;4.88;;;7.80;99.90;;;;;;4921059;28;94171;-73
2023/02/04 00:05:11;;;;;;;28.08;4.38;;;7.80;99.90;;;;;;4936848;28;92553;-72
2023/02/04 00:07:38;;;;;;;27.67;5.05;;;7.90;99.90;;;;;;4936998;28;92638;-72
2023/02/04 00:10:08;;;;;;;31.23;6.00;;;7.90;99.90;;;;;;4936696;28;95706;-72
2023/02/04 00:12:35;;;;;;;24.17;5.55;;;7.90;99.90;;;;;;4921218;28;95739;-73
2023/02/04 00:15:02;;;;;;;30.10;4.65;;;8.00;99.90;;;;;;4936966;28;92467;-72
2023/02/04 00:17:29;;;;;;;30.95;5.45;;;8.00;99.90;;;;;;4937258;28;92556;-73
2023/02/04 00:19:56;;;;;;;31.52;5.43;;;8.00;99.90;;;;;;4935087;28;105393;-74
2023/02/04 00:22:25;;;;;;;28.10;5.00;;;8.00;99.90;;;;;;4920904;28;97704;-73
2023/02/04 00:24:52;;;;;;;26.63;4.93;;;8.00;99.90;;;;;;4936786;28;92638;-73
2023/02/04 00:27:19;;;;;;;24.80;4.15;;;8.00;99.90;;;;;;4937837;28;92506;-73
2023/02/04 00:29:46;;;;;;;30.85;4.65;;;8.00;99.90;;;;;;4937910;28;93288;-73
2023/02/04 00:32:13;;;;;;;25.55;4.65;;;8.00;99.90;;;;;;4936309;28;95650;-73
2023/02/04 00:34:40;;;;;;;28.63;4.45;;;8.00;99.90;;;;;;4937000;28;92483;-73
2023/02/04 00:37:07;;;;;;;28.17;4.20;;;8.00;99.90;;;;;;4920932;28;91818;-73
2023/02/04 00:39:34;;;;;;;38.13;5.63;;;8.00;99.90;;;;;;4904680;28;95826;-73
2023/02/04 00:42:01;;;;;;;32.17;4.85;;;8.00;99.90;;;;;;4937603;28;93127;-73
2023/02/04 00:44:28;;;;;;;26.98;4.70;;;7.90;99.90;;;;;;4935684;28;94939;-73
2023/02/04 00:46:56;;;;;;;30.10;4.95;;;7.90;99.90;;;;;;4936721;28;92593;-73
2023/02/04 00:49:23;;;;;;;32.67;5.78;;;7.90;99.90;;;;;;4936185;28;95640;-73
2023/02/04 00:51:50;;;;;;;26.35;4.80;;;7.90;99.90;;;;;;4936593;28;93004;-73
2023/02/04 00:54:17;;;;;;;35.65;5.40;;;7.80;99.90;;;;;;4936211;28;93207;-73
2023/02/04 00:56:45;;;;;;;24.23;3.97;;;7.80;99.90;;;;;;4920232;28;92669;-73
2023/02/04 00:59:12;;;;;;;29.67;4.50;;;7.80;99.90;;;;;;4936300;28;93188;-73
2023/02/04 01:01:39;;;;;;;38.50;6.05;;;7.80;99.90;;;;;;4937815;28;92862;-73
2023/02/04 01:04:07;;;;;;;26.00;4.38;;;7.80;99.90;;;;;;4904174;28;93071;-73
2023/02/04 01:06:34;;;;;;;29.13;4.53;;;7.80;99.90;;;;;;4936080;28;92548;-73
2023/02/04 01:09:02;;;;;;;30.15;5.90;;;7.80;99.90;;;;;;4936267;28;95955;-73
2023/02/04 01:11:30;;;;;;;32.15;6.15;;;7.80;99.90;;;;;;4937093;28;95419;-73
2023/02/04 01:13:57;;;;;;;38.83;5.55;;;7.80;99.90;;;;;;4904161;28;92505;-73
2023/02/04 01:16:24;;;;;;;31.75;4.80;;;7.80;99.90;;;;;;4919762;28;92475;-73
2023/02/04 01:18:54;;;;;;;23.67;4.00;;;7.90;99.90;;;;;;4936179;28;93096;-73
2023/02/04 01:21:23;;;;;;;23.60;4.60;;;7.90;99.90;;;;;;4937169;28;92967;-73
2023/02/04 01:23:51;;;;;;;28.33;5.10;;;8.00;99.90;;;;;;4919853;28;92531;-73
2023/02/04 01:26:18;;;;;;;26.80;4.45;;;8.00;99.90;;;;;;4919951;28;91788;-73
2023/02/04 01:28:46;;;;;;;25.70;5.20;;;8.00;99.90;;;;;;4935688;28;95635;-73
2023/02/04 01:31:14;;;;;;;22.17;4.53;;;8.00;99.90;;;;;;4918522;28;96020;-73
2023/02/04 01:33:41;;;;;;;27.67;4.95;;;8.10;99.90;;;;;;4934820;28;95303;-73
2023/02/04 01:36:09;;;;;;;26.38;4.78;;;8.00;99.90;;;;;;4935698;28;92513;-73
2023/02/04 01:38:36;;;;;;;28.20;4.32;;;8.00;99.90;;;;;;4936682;28;93156;-73
2023/02/04 01:41:04;;;;;;;30.42;4.63;;;8.00;99.90;;;;;;4936710;28;92999;-73
2023/02/04 01:43:32;;;;;;;27.80;4.53;;;8.00;99.90;;;;;;4936767;28;92535;-73
2023/02/04 01:46:01;;;;;;;23.38;4.35;;;8.10;99.90;;;;;;4935743;28;92977;-73
2023/02/04 01:48:29;;;;;;;30.05;4.80;;;8.00;99.90;;;;;;4935135;28;95459;-73
2023/02/04 01:51:03;;;;;;;32.70;5.65;;;8.00;99.90;;;;;;4935840;28;94913;-73
2023/02/04 01:53:30;;;;;;;30.00;4.78;;;8.10;99.90;;;;;;4936648;28;92584;-73
2023/02/04 01:55:58;;;;;;;24.52;4.57;;;8.00;99.90;;;;;;4936709;28;92963;-73
2023/02/04 01:58:25;;;;;;;29.00;5.22;;;8.00;99.90;;;;;;4935099;28;95617;-73
2023/02/04 02:00:52;;;;;;;28.30;5.03;;;8.00;99.90;;;;;;4919099;28;97859;-73
2023/02/04 02:03:19;;;;;;;27.33;5.03;;;8.00;99.90;;;;;;4935147;28;92593;-73
2023/02/04 02:05:51;;;;;;;21.48;3.80;;;8.10;99.90;;;;;;4935562;28;93038;-73
2023/02/04 02:08:18;;;;;;;29.48;5.35;;;8.10;99.90;;;;;;4918917;28;95957;-73
2023/02/04 02:10:48;;;;;;;27.73;5.18;;;8.10;99.90;;;;;;4935009;28;94778;-73
2023/02/04 02:13:17;;;;;;;31.25;5.28;;;8.10;99.90;;;;;;4935018;28;92544;-73
2023/02/04 02:15:45;;;;;;;28.27;4.97;;;8.10;99.90;;;;;;4935738;28;92227;-73
2023/02/04 02:18:14;;;;;;;29.80;5.05;;;8.10;99.90;;;;;;4919002;28;95735;-73
2023/02/04 02:20:44;;;;;;;27.75;5.00;;;8.10;99.90;;;;;;4934918;28;95567;-73
2023/02/04 02:23:28;;;;;;;31.67;4.80;;;8.10;99.90;;;;;;4934120;28;94932;-73
2023/02/04 02:25:56;;;;;;;29.10;4.95;;;8.10;99.90;;;;;;4934707;28;92489;-73
2023/02/04 02:28:23;;;;;;;30.58;4.80;;;8.00;99.90;;;;;;4936231;28;93608;-73
2023/02/04 02:30:51;;;;;;;25.05;4.82;;;8.00;99.90;;;;;;4934891;28;95595;-73
2023/02/04 02:33:19;;;;;;;35.47;4.75;;;8.00;99.90;;;;;;4934673;28;92518;-73
2023/02/04 02:35:48;;;;;;;37.45;5.00;;;8.10;99.90;;;;;;4919278;28;92520;-73
2023/02/04 02:38:17;;;;;;;24.23;4.03;;;8.00;99.90;;;;;;4934857;28;93090;-73
2023/02/04 02:40:48;;;;;;;25.90;4.47;;;8.10;99.90;;;;;;4935378;28;93136;-73
2023/02/04 02:43:19;;;;;;;33.33;5.18;;;8.10;99.90;;;;;;4920654;28;92491;-73
2023/02/04 02:45:47;;;;;;;31.92;4.63;;;8.10;99.90;;;;;;4938406;28;92563;-73
2023/02/04 02:48:14;;;;;;;29.67;4.35;;;8.10;99.90;;;;;;4938251;28;95914;-73
2023/02/04 02:50:42;;;;;;;34.35;5.57;;;8.00;99.90;;;;;;4939377;28;95546;-73
2023/02/04 02:53:12;;;;;;;31.38;4.93;;;8.10;99.90;;;;;;4939633;28;92365;-73
2023/02/04 02:55:41;;;;;;;28.65;4.88;;;8.10;99.90;;;;;;4906351;28;92540;-73
2023/02/04 02:58:38;;;;;;;27.35;4.53;;;8.10;99.90;;;;;;4937796;28;96032;-73
2023/02/04 03:01:07;;;;;;;27.75;5.03;;;8.20;99.90;;;;;;4937000;28;94889;-73
2023/02/04 03:03:43;;;;;;;31.50;5.13;;;8.10;99.90;;;;;;4922308;28;92419;-73
2023/02/04 03:06:25;;;;;;;33.15;4.28;;;8.10;99.90;;;;;;4938319;28;91672;-73
2023/02/04 03:08:54;;;;;;;31.85;4.72;;;8.20;99.90;;;;;;4937825;28;95902;-73
2023/02/04 03:11:22;;;;;;;30.63;4.68;;;8.10;99.90;;;;;;4921846;28;95540;-73
2023/02/04 03:13:51;;;;;;;29.48;4.85;;;8.10;99.90;;;;;;4936857;28;95191;-73
2023/02/04 03:16:18;;;;;;;34.40;4.72;;;8.10;99.90;;;;;;4939412;28;93001;-73
2023/02/04 03:18:46;;;;;;;28.50;4.47;;;8.10;99.90;;;;;;4937934;28;94186;-73
2023/02/04 03:21:14;;;;;;;27.15;5.10;;;8.10;99.90;;;;;;4937852;28;96027;-73
2023/02/04 03:23:41;;;;;;;25.92;6.55;;;8.10;99.90;;;;;;4905784;28;92524;-74
2023/02/04 03:26:08;;;;;;;36.13;5.22;;;8.10;99.90;;;;;;4921740;28;92610;-74
2023/02/04 03:28:40;;;;;;;25.85;4.78;;;8.00;99.90;;;;;;4938774;28;93275;-73
2023/02/04 03:31:08;;;;;;;37.27;5.17;;;8.00;99.90;;;;;;4937792;28;95466;-72
2023/02/04 03:33:35;;;;;;;27.77;4.80;;;8.00;99.90;;;;;;4937541;28;92443;-72
2023/02/04 03:36:02;;;;;;;32.47;5.68;;;8.00;99.90;;;;;;4937845;28;92420;-73
2023/02/04 03:38:29;;;;;;;35.25;5.60;;;8.00;99.90;;;;;;4937288;28;95705;-73
2023/02/04 03:40:56;;;;;;;36.78;5.32;;;8.00;99.90;;;;;;4937519;28;95332;-72
2023/02/04 03:43:23;;;;;;;29.50;4.47;;;8.00;99.90;;;;;;4938153;28;92511;-73
2023/02/04 03:45:50;;;;;;;35.80;5.43;;;7.90;99.90;;;;;;4937466;28;92509;-73
2023/02/04 03:48:17;;;;;;;32.20;5.32;;;8.00;99.90;;;;;;4937787;28;93848;-73
2023/02/04 03:50:44;;;;;;;37.83;6.18;;;8.00;99.90;;;;;;4937548;28;92951;-72
2023/02/04 03:53:11;;;;;;;34.47;4.57;;;8.00;99.90;;;;;;4921154;28;92530;-72
2023/02/04 03:55:38;;;;;;;34.40;5.85;;;8.00;99.90;;;;;;4936766;28;91822;-72
2023/02/04 03:58:05;;;;;;;32.65;5.57;;;8.00;99.90;;;;;;4936737;28;95954;-73
2023/02/04 04:00:32;;;;;;;36.95;4.72;;;8.00;99.90;;;;;;4938253;28;93050;-73
2023/02/04 04:02:59;;;;;;;37.30;4.90;;;8.00;99.90;;;;;;4937403;28;94831;-72
2023/02/04 04:05:27;;;;;;;33.47;5.18;;;8.00;99.90;;;;;;4937178;28;92551;-73
2023/02/04 04:07:54;;;;;;;37.03;5.00;;;7.90;99.90;;;;;;4937152;28;95603;-73
2023/02/04 04:10:21;;;;;;;33.53;5.43;;;7.90;99.90;;;;;;4938427;28;93040;-73
2023/02/04 04:12:48;;;;;;;30.35;4.38;;;7.90;99.90;;;;;;4936696;28;92707;-73
2023/02/04 04:15:15;;;;;;;35.17;4.03;;;7.90;99.90;;;;;;4938311;28;92507;-72
2023/02/04 04:17:42;;;;;;;28.20;4.18;;;7.90;99.90;;;;;;4937209;28;93156;-73
2023/02/04 04:20:10;;;;;;;37.53;5.53;;;7.90;99.90;;;;;;4937383;28;93002;-73
2023/02/04 04:22:37;;;;;;;32.70;4.57;;;7.90;99.90;;;;;;4936979;28;92503;-73
2023/02/04 04:25:05;;;;;;;39.95;5.25;;;7.90;99.90;;;;;;4936911;28;92872;-73
2023/02/04 04:27:32;;;;;;;35.00;5.45;;;7.90;99.90;;;;;;4919141;28;98096;-73
2023/02/04 04:30:00;;;;;;;30.88;4.72;;;7.90;99.90;;;;;;4937113;28;94319;-72
2023/02/04 04:32:26;;;;;;;37.35;6.10;;;7.90;99.90;;;;;;4920945;28;93047;-73
2023/02/04 04:34:53;;;;;;;33.80;5.78;;;7.90;99.90;;;;;;4920596;28;92507;-72
2023/02/04 04:37:20;;;;;;;31.38;5.07;;;7.90;99.90;;;;;;4920413;28;95738;-73
2023/02/04 04:39:47;;;;;;;37.13;5.38;;;7.90;99.90;;;;;;4920479;28;93015;-73
2023/02/04 04:42:14;;;;;;;38.30;5.85;;;7.90;99.90;;;;;;4936636;28;92537;-73
2023/02/04 04:44:41;;;;;;;38.92;6.05;;;7.80;99.90;;;;;;4938115;28;91735;-73
2023/02/04 04:47:08;;;;;;;36.53;6.50;;;7.80;99.90;;;;;;4920342;28;96342;-72
2023/02/04 04:49:35;;;;;;;29.67;4.22;;;7.80;99.90;;;;;;4936346;28;92906;-72
2023/02/04 04:52:02;;;;;;;30.73;5.45;;;7.80;99.90;;;;;;4935603;28;94936;-73
2023/02/04 04:54:29;;;;;;;36.63;5.43;;;7.80;99.90;;;;;;4936727;28;92551;-72
2023/02/04 04:56:56;;;;;;;31.33;5.65;;;7.80;99.90;;;;;;4935782;28;93668;-73
2023/02/04 04:59:23;;;;;;;29.70;4.78;;;7.70;99.90;;;;;;4936669;28;92872;-73
2023/02/04 05:01:50;;;;;;;30.60;4.97;;;7.70;99.90;;;;;;4936232;28;92548;-73
2023/02/04 05:04:17;;;;;;;26.77;4.00;;;7.70;99.90;;;;;;4920543;28;92504;-72
2023/02/04 05:06:44;;;;;;;23.95;4.30;;;7.70;99.90;;;;;;4934481;28;94947;-72
2023/02/04 05:09:13;;;;;;;29.70;4.07;;;7.80;99.90;;;;;;4936469;28;93163;-72
2023/02/04 05:11:40;;;;;;;22.58;4.03;;;7.70;99.90;;;;;;4920184;28;92694;-73
2023/02/04 05:14:07;;;;;;;22.67;3.45;;;7.70;99.90;;;;;;4936071;28;92684;-72
2023/02/04 05:16:34;;;;;;;29.25;4.15;;;7.70;99.90;;;;;;4934727;28;98574;-73
2023/02/04 05:19:01;;;;;;;25.52;3.63;;;7.70;99.90;;;;;;4936111;28;95328;-72
2023/02/04 05:21:28;;;;;;;22.50;4.35;;;7.70;99.90;;;;;;4937408;28;92547;-72
2023/02/04 05:23:55;;;;;;;24.00;4.15;;;7.70;99.90;;;;;;4935675;28;92732;-73
2023/02/04 05:26:22;;;;;;;26.27;4.43;;;7.70;99.90;;;;;;4937346;28;93560;-73
2023/02/04 05:28:58;;;;;;;22.50;3.72;;;7.70;99.90;;;;;;4935702;28;93313;-72
2023/02/04 05:31:26;;;;;;;24.77;4.22;;;7.60;99.90;;;;;;4937359;28;93106;-72
2023/02/04 05:33:53;;;;;;;24.08;4.05;;;7.70;99.90;;;;;;4935843;28;91941;-73
2023/02/04 05:36:20;;;;;;;16.08;3.17;;;7.60;99.90;;;;;;4935711;28;93284;-72
2023/02/04 05:38:47;;;;;;;23.13;3.35;;;7.60;99.90;;;;;;4935543;28;94006;-73
2023/02/04 05:41:14;;;;;;;20.83;2.83;;;7.60;99.90;;;;;;4934941;28;94954;-72
2023/02/04 05:43:41;;;;;;;28.70;4.60;;;7.60;99.90;;;;;;4937030;28;92433;-72
2023/02/04 05:46:08;;;;;;;22.50;3.63;;;7.60;99.90;;;;;;4936807;28;97906;-72
2023/02/04 05:48:36;;;;;;;19.90;3.85;;;7.60;99.90;;;;;;4937018;28;93173;-73
2023/02/04 05:51:03;;;;;;;14.10;3.45;;;7.60;99.90;;;;;;4936562;28;92453;-72
2023/02/04 05:53:30;;;;;;;26.10;4.10;;;7.60;99.90;;;;;;4937109;28;92494;-73
2023/02/04 05:55:57;;;;;;;18.17;3.95;;;7.60;99.90;;;;;;4936578;28;93272;-73
2023/02/04 05:58:24;;;;;;;15.38;3.03;;;7.60;99.90;;;;;;4936665;28;93085;-73
2023/02/04 06:00:51;;;;;;;13.45;2.53;;;7.60;99.90;;;;;;4935685;28;92879;-73
2023/02/04 06:03:18;;;;;;;20.95;3.35;;;7.60;99.90;;;;;;4919582;28;92544;-73
2023/02/04 06:05:45;;;;;;;20.80;3.95;;;7.50;99.90;;;;;;4935334;28;95700;-72
2023/02/04 06:08:14;;;;;;;17.98;3.47;;;7.60;99.90;;;;;;4935453;28;95472;-72
2023/02/04 06:10:41;;;;;;;18.83;3.42;;;7.60;99.90;;;;;;4935479;28;92544;-72
2023/02/04 06:13:08;;;;;;;13.38;3.53;;;7.60;99.90;;;;;;4919287;28;92512;-72
2023/02/04 06:15:35;;;;;;;21.65;3.72;;;7.60;99.90;;;;;;4935238;28;93319;-73
2023/02/04 06:18:03;;;;;;;17.48;3.72;;;7.50;99.90;;;;;;4935620;28;92998;-73
2023/02/04 06:20:30;;;;;;;16.52;3.33;;;7.60;99.90;;;;;;4935230;28;92501;-73
2023/02/04 06:22:57;;;;;;;9.10;2.72;;;7.60;99.90;;;;;;4919343;28;91757;-73
2023/02/04 06:25:24;;;;;;;13.02;2.35;;;7.50;99.90;;;;;;4935227;28;93308;-72
2023/02/04 06:27:51;;;;;;;16.70;4.13;;;7.50;99.90;;;;;;4918774;28;95561;-73
2023/02/04 06:30:18;;;;;;;7.93;2.85;;;7.50;99.90;;;;;;4933991;28;94812;-72
2023/02/04 06:32:45;;;;;;;9.90;1.95;;;7.50;99.90;;;;;;4903045;28;92513;-73
2023/02/04 06:35:14;;;;;;;14.93;2.58;;;7.50;99.90;;;;;;4918779;28;95020;-72
2023/02/04 06:37:41;;;;;;;14.35;2.53;;;7.40;99.90;;;;;;4935166;28;93096;-73
2023/02/04 06:40:09;;;;;;;9.82;2.42;;;7.40;99.90;;;;;;4936286;28;92392;-73
2023/02/04 06:42:36;;;;;;;11.02;2.00;;;7.30;99.90;;;;;;4936065;28;95743;-73
2023/02/04 06:45:03;;;;;;;7.82;2.55;;;7.30;99.90;;;;;;4918605;28;96346;-73
2023/02/04 06:47:30;;;;;;;10.85;1.88;;;7.20;99.90;;;;;;4935338;28;93016;-73
2023/02/04 06:49:57;;;;;;;12.00;2.15;;;7.10;99.90;;;;;;4934731;28;92467;-73
2023/02/04 06:52:24;;;;;;;10.13;2.20;;;7.10;99.90;;;;;;4936547;28;92442;-73
2023/02/04 06:54:51;;;;;;;9.95;2.10;;;7.10;99.90;;;;;;4934560;28;95419;-73
2023/02/04 06:57:18;;;;;;;12.82;2.22;;;7.10;99.90;;;;;;4935372;28;95317;-73
2023/02/04 06:59:46;;;;;;;6.07;1.50;;;7.10;99.90;;;;;;4935117;28;92504;-73
2023/02/04 07:02:13;;;;;;;8.70;2.00;;;7.10;99.90;;;;;;4934786;28;92502;-73
2023/02/04 07:04:42;;;;;;;10.82;2.30;;;7.10;99.90;;;;;;4918479;28;94152;-73
2023/02/04 07:07:10;;;;;;;9.75;1.58;;;7.10;99.90;;;;;;4935660;28;93126;-73
2023/02/04 07:09:39;;;;;;;16.23;2.55;;;7.10;99.90;;;;;;4936120;28;92389;-73
2023/02/04 07:12:06;;;;;;;5.38;1.90;;;7.10;99.90;;;;;;4934406;28;92078;-73
2023/02/04 07:14:33;;;;;;;8.57;2.13;;;7.10;99.90;;;;;;4935630;28;93209;-73
2023/02/04 07:17:00;;;;;;;12.90;2.75;;;7.10;99.90;;;;;;4934318;28;93563;-73
2023/02/04 07:19:27;;;;;;;13.07;2.40;;;7.10;99.90;;;;;;4933699;28;94938;-73
2023/02/04 07:21:55;;;;;;;6.88;1.90;;;7.10;99.90;;;;;;4934538;28;92533;-73
2023/02/04 07:24:23;;;;;;;13.10;2.50;;;7.10;99.90;;;;;;4934242;28;96629;-73
2023/02/04 07:26:50;;;;;;;8.82;1.75;;;7.10;99.90;;;;;;4934094;28;93080;-73
2023/02/04 07:29:20;;;;;;;12.52;2.53;;;7.10;99.90;;;;;;4935232;28;92836;-73
2023/02/04 07:31:52;;;;;;;;;;;7.10;99.90;;;;;;4939605;28;92358;-73
2023/02/04 07:34:19;;;;;;;8.02;1.63;;;7.10;99.90;;;;;;4971308;28;93330;-73
2023/02/04 07:36:46;;;;;;;11.05;1.92;;;7.10;99.90;;;;;;4939196;28;92958;-73
2023/02/04 07:39:14;;;;;;;9.88;2.22;;;7.10;99.90;;;;;;4937441;28;92493;-73
2023/02/04 07:41:41;;;;;;;12.20;2.03;;;7.10;99.90;;;;;;4937953;28;93028;-73
2023/02/04 07:44:08;;;;;;;7.93;1.95;;;7.10;99.90;;;;;;4935751;28;97022;-73
2023/02/04 07:46:35;;;;;;;10.20;2.55;;;7.10;99.90;;;;;;4937434;28;95328;-74
2023/02/04 07:49:02;;;;;;;6.90;1.92;;;7.20;99.90;;;;;;4938955;28;92413;-73
2023/02/04 07:51:29;;;;;;;8.48;2.17;;;7.20;99.90;;;;;;4939015;28;93006;-74
2023/02/04 07:53:56;;;;;;;10.55;2.00;;;7.20;99.90;;;;;;4938388;28;92463;-74
2023/02/04 07:56:23;;;;;;;10.95;2.20;;;7.30;99.90;;;;;;4937111;28;95548;-74
2023/02/04 07:58:50;;;;;;;5.38;1.50;;;7.30;99.90;;;;;;4921659;28;92450;-73
2023/02/04 08:01:17;;;;;;;7.38;1.90;;;7.40;99.90;;;;;;4937815;28;92106;-74
2023/02/04 08:03:45;;;;;;;13.55;2.45;;;7.40;99.90;;;;;;4937538;28;93135;-74
2023/02/04 08:06:12;;;;;;;10.43;2.17;;;7.50;99.90;;;;;;4936793;28;98831;-73
2023/02/04 08:08:39;;;;;;;8.77;2.50;;;7.40;99.90;;;;;;4920293;28;94923;-73
2023/02/04 08:11:06;;;;;;;10.30;2.55;;;7.50;99.90;;;;;;4937351;28;92508;-73
2023/02/04 08:13:33;;;;;;;9.48;1.90;;;7.40;99.90;;;;;;4938376;28;93197;-74
2023/02/04 08:16:00;;;;;;;10.20;1.77;;;7.50;99.90;;;;;;4938168;28;92962;-74
2023/02/04 08:18:27;;;;;;;8.52;1.70;;;7.50;99.90;;;;;;4936986;28;92531;-74
2023/02/04 08:20:54;;;;;;;12.85;2.45;;;7.50;99.90;;;;;;4938377;28;92426;-74
2023/02/04 08:23:22;;;;;;;6.13;1.60;;;7.50;99.90;;;;;;4920732;28;93311;-73
2023/02/04 08:25:49;;;;;;;13.02;2.88;;;7.50;99.90;;;;;;4938409;28;92966;-73
2023/02/04 08:28:16;;;;;;;10.23;2.40;;;7.50;99.90;;;;;;4936781;28;93218;-74
2023/02/04 08:30:43;;;;;;;9.15;2.03;;;7.50;99.90;;;;;;4938175;28;92499;-74
2023/02/04 08:33:10;;;;;;;6.55;1.77;;;7.60;99.90;;;;;;4936641;28;95611;-74
2023/02/04 08:35:37;;;;;;;9.95;2.40;;;7.60;99.90;;;;;;4936317;28;95452;-73
2023/02/04 08:38:04;;;;;;;9.55;2.00;;;7.60;99.90;;;;;;4936775;28;92475;-73
2023/02/04 08:40:31;;;;;;;10.48;2.10;;;7.60;99.90;;;;;;4936647;28;92483;-74
2023/02/04 08:42:58;;;;;;;6.82;2.20;;;7.70;99.90;;;;;;4920611;28;96118;-74
2023/02/04 08:45:26;;;;;;;7.07;1.70;;;7.70;99.90;;;;;;4936532;28;93453;-73
2023/02/04 08:47:53;;;;;;;5.55;2.13;;;7.80;99.90;;;;;;4938384;28;92477;-73
2023/02/04 08:50:20;;;;;;;4.07;1.70;;;7.80;99.90;;;;;;4937696;28;91731;-74
2023/02/04 08:52:47;;;;;;;6.28;2.08;;;7.90;99.90;;;;;;4936601;28;93354;-74
2023/02/04 08:55:14;;;;;;;10.80;2.00;;;7.90;99.90;;;;;;4920084;28;95727;-74
2023/02/04 08:57:41;;;;;;;6.30;2.10;;;8.00;99.90;;;;;;4918594;28;94936;-74
2023/02/04 09:00:10;;;;;;;11.00;2.45;;;8.00;99.90;;;;;;4936507;28;92512;-74
2023/02/04 09:02:37;;;;;;;8.35;2.35;;;8.10;99.90;;;;;;4920065;28;96089;-74
2023/02/04 09:05:07;;;;;;;9.75;1.95;;;8.10;99.90;;;;;;4936171;28;92860;-74
2023/02/04 09:07:35;;;;;;;7.85;2.42;;;8.10;99.90;;;;;;4936927;28;92497;-74
2023/02/04 09:10:01;;;;;;;7.47;2.63;;;8.10;99.90;;;;;;4937751;28;92575;-74
2023/02/04 09:12:28;;;;;;;5.43;1.77;;;8.20;99.90;;;;;;4935854;28;95979;-74
2023/02/04 09:14:56;;;;;;;5.22;2.05;;;8.20;99.90;;;;;;4936261;28;95292;-73
2023/02/04 09:17:23;;;;;;;6.80;2.00;;;8.30;99.90;;;;;;4936345;28;92525;-73
2023/02/04 09:19:50;;;;;;;6.40;2.00;;;8.40;99.90;;;;;;4937341;28;92494;-73
2023/02/04 09:22:17;;;;;;;6.85;1.90;;;8.40;99.90;;;;;;4935657;28;97747;-73
2023/02/04 09:24:44;;;;;;;9.27;2.17;;;8.50;99.90;;;;;;4937008;28;95416;-73
2023/02/04 09:27:11;;;;;;;8.13;2.30;;;8.50;99.90;;;;;;4936047;28;92537;-74
2023/02/04 09:29:38;;;;;;;5.07;1.58;;;8.50;99.90;;;;;;4936339;28;92535;-74
2023/02/04 09:32:05;;;;;;;9.25;2.45;;;8.50;99.90;;;;;;4935866;28;93169;-73
2023/02/04 09:34:33;;;;;;;7.38;2.58;;;8.40;99.90;;;;;;4935670;28;93150;-74
2023/02/04 09:37:00;;;;;;;5.25;2.45;;;8.40;99.90;;;;;;4936197;28;92419;-75
2023/02/04 09:39:27;;;;;;;4.47;1.80;;;8.50;99.90;;;;;;4936217;28;91870;-74
2023/02/04 09:41:55;;;;;;;9.15;2.30;;;8.40;99.90;;;;;;4937118;28;93620;-74
2023/02/04 09:44:25;;;;;;;7.80;2.65;;;8.40;99.90;;;;;;4936499;28;93038;-74
2023/02/04 09:46:55;;;;;;;8.35;2.53;;;8.40;99.90;;;;;;4936191;28;94785;-74
2023/02/04 09:49:22;;;;;;;6.53;2.17;;;8.40;99.90;;;;;;4935309;28;92563;-72
2023/02/04 09:51:50;;;;;;;4.85;2.92;;;8.30;99.90;;;;;;4935001;28;93361;-73
2023/02/04 09:54:19;;;;;;;9.63;4.15;;;8.30;99.90;;;;;;4918823;28;95531;-73
2023/02/04 09:56:47;;;;;;;5.30;2.85;;;8.30;99.90;;;;;;4936011;28;93048;-73
2023/02/04 09:59:26;;;;;;;5.20;2.17;;;8.40;99.90;;;;;;4936293;28;92941;-73
2023/02/04 10:02:10;;;;;;;6.45;1.90;;;8.50;99.90;;;;;;4936776;28;93354;-73
2023/02/04 10:04:37;;;;;;;4.57;1.67;;;8.60;99.90;;;;;;4937094;28;92861;-74
2023/02/04 10:07:13;;;;;;;6.28;2.17;;;8.50;99.90;;;;;;4936664;28;93463;-73
2023/02/04 10:09:41;;;;;;;8.15;2.65;;;8.60;99.90;;;;;;4936687;28;92453;-73
2023/02/04 10:12:08;;;;;;;5.43;1.92;;;8.70;99.90;;;;;;4933823;28;98454;-73
2023/02/04 10:14:35;;;;;;;2.95;2.00;;;8.80;99.90;;;;;;4936057;28;95488;-73
2023/02/04 10:17:02;;;;;;;5.40;1.92;;;8.90;99.90;;;;;;4936731;28;92394;-73
2023/02/04 10:19:30;;;;;;;4.60;2.20;;;9.00;99.90;;;;;;4919023;28;92711;-73
2023/02/04 10:21:57;;;;;;;7.43;2.55;;;9.10;99.90;;;;;;4936316;28;93253;-74
2023/02/04 10:24:26;;;;;;;5.63;2.50;;;9.20;99.90;;;;;;4918727;28;95839;-74
2023/02/04 10:27:04;;;;;;;8.73;2.47;;;9.30;99.90;;;;;;4935091;28;92573;-74
2023/02/04 10:29:32;;;;;;;4.72;1.85;;;9.40;99.90;;;;;;4936911;28;91701;-74
2023/02/04 10:31:59;;;;;;;5.55;2.42;;;9.50;99.90;;;;;;4936421;28;93169;-74
2023/02/04 10:34:38;;;;;;;4.85;2.20;;;9.50;99.90;;;;;;4935909;28;92993;-74
2023/02/04 10:37:20;;;;;;;5.65;2.45;;;9.60;99.90;;;;;;4934292;28;94925;-74
2023/02/04 10:39:48;;;;;;;5.93;2.38;;;9.60;99.90;;;;;;4936562;28;92378;-74
2023/02/04 10:42:24;;;;;;;4.32;2.03;;;9.50;99.90;;;;;;4936301;28;93301;-74
2023/02/04 10:44:52;;;;;;;8.43;2.65;;;9.50;99.90;;;;;;4935975;28;92961;-74
2023/02/04 10:47:29;;;;;;;6.10;2.47;;;9.50;99.90;;;;;;4918984;28;92399;-74
2023/02/04 10:50:14;;;;;;;7.28;2.60;;;9.60;99.90;;;;;;4935222;28;92393;-74
2023/02/04 10:52:46;;;;;;;5.75;2.42;;;9.60;99.90;;;;;;4936122;28;93257;-75
2023/02/04 10:55:16;;;;;;;8.15;4.95;;;9.60;99.90;;;;;;4936523;28;91880;-74
2023/02/04 10:57:47;;;;;;;6.30;3.40;;;9.60;99.90;;;;;;4935467;28;92503;-75
2023/02/04 11:00:22;;;;;;;3.83;2.90;;;9.70;99.90;;;;;;4936336;28;92407;-74
2023/02/04 11:03:06;;;;;;;4.90;2.65;;;9.90;99.90;;;;;;4934854;28;96031;-74
2023/02/04 11:05:34;;;;;;;9.30;2.60;;;10.00;99.90;;;;;;4939164;28;95559;-74
2023/02/04 11:08:17;;;;;;;4.50;2.47;;;10.10;99.90;;;;;;4937964;28;92563;-74
2023/02/04 11:10:44;;;;;;;5.30;2.60;;;10.10;99.90;;;;;;4939341;28;92385;-74
2023/02/04 11:13:25;;;;;;;4.47;2.20;;;10.20;99.90;;;;;;4921895;28;95734;-74
2023/02/04 11:16:10;;;;;;;3.85;2.08;;;10.30;99.90;;;;;;4936858;28;94776;-74
2023/02/04 11:19:29;;;;;;;3.03;2.20;;;10.40;99.90;;;;;;4921728;28;93446;-74
2023/02/04 11:22:18;;;;;;;2.42;1.88;;;10.50;99.90;;;;;;4898710;28;91816;-73
2023/02/04 11:24:45;;;;;;;4.05;2.33;;;10.60;99.90;;;;;;4898176;28;93219;-73
2023/02/04 11:27:25;;;;;;;5.03;2.63;;;10.60;99.90;;;;;;4921460;28;95518;-74
2023/02/04 11:30:18;;;;;;;5.70;2.60;;;10.70;99.90;;;;;;4920717;28;95324;-73
2023/02/04 11:32:59;;;;;;;16.73;7.78;;;10.70;99.90;;;;;;4937782;28;92373;-73
2023/02/04 11:35:27;;;;;;;4.47;2.90;;;10.70;99.90;;;;;;4937415;28;96091;-73
2023/02/04 11:37:55;;;;;;;6.43;2.70;;;10.60;99.90;;;;;;4921620;28;94209;-73
2023/02/04 11:40:31;;;;;;;3.67;1.45;;;10.50;99.90;;;;;;4921992;28;92463;-73
2023/02/04 11:43:01;;;;;;;3.13;2.08;;;10.50;99.90;;;;;;4939055;28;92390;-74
2023/02/04 11:45:32;;;;;;;3.22;2.10;;;10.30;99.90;;;;;;4937183;28;94278;-73
2023/02/04 11:48:03;;;;;;;2.17;1.90;;;10.30;99.90;;;;;;4938095;28;93172;-73
2023/02/04 11:50:32;;;;;;;2.95;1.90;;;10.20;99.90;;;;;;4938631;28;92373;-75
2023/02/04 11:53:01;;;;;;;4.57;2.20;;;10.00;99.90;;;;;;4921283;28;92548;-74
2023/02/04 11:55:29;;;;;;;3.22;1.73;;;9.90;99.90;;;;;;4935579;28;98639;-74
2023/02/04 11:57:57;;;;;;;4.75;2.28;;;9.80;99.90;;;;;;4936525;28;97846;-74
2023/02/04 12:00:32;;;;;;;4.90;2.80;;;9.80;99.90;;;;;;4921665;28;93231;-73
2023/02/04 12:03:10;;;;;;;4.85;2.55;;;9.90;99.90;;;;;;4938963;28;92377;-74
2023/02/04 12:05:39;;;;;;;4.25;2.60;;;9.80;99.90;;;;;;4936940;28;95475;-74
2023/02/04 12:08:24;;;;;;;7.10;4.22;;;9.80;99.90;;;;;;4938208;28;92967;-73
2023/02/04 12:11:03;;;;;;;5.82;3.03;;;9.70;99.90;;;;;;4938364;28;92405;-74
2023/02/04 12:13:30;;;;;;;3.92;2.38;;;9.70;99.90;;;;;;4937220;28;91810;-74
2023/02/04 12:16:02;;;;;;;3.88;2.63;;;9.80;99.90;;;;;;4937412;28;93411;-74
2023/02/04 12:18:30;;;;;;;3.05;2.65;;;9.90;99.90;;;;;;4938451;28;93113;-74
2023/02/04 12:20:59;;;;;;;4.22;2.53;;;10.00;99.90;;;;;;4937152;28;94953;-73
2023/02/04 12:23:28;;;;;;;3.58;2.53;;;10.10;99.90;;;;;;4920977;28;92607;-74
2023/02/04 12:25:55;;;;;;;6.05;3.60;;;10.20;99.90;;;;;;4936680;28;93544;-74
2023/02/04 12:28:23;;;;;;;5.43;3.97;;;10.30;99.90;;;;;;4936722;28;95771;-74
2023/02/04 12:30:50;;;;;;;7.68;5.07;;;10.30;99.90;;;;;;4938060;28;92352;-74
2023/02/04 12:33:17;;;;;;;3.72;2.53;;;10.30;99.90;;;;;;4937956;28;92446;-73
2023/02/04 12:35:45;;;;;;;4.45;2.80;;;10.30;99.90;;;;;;4920490;28;92628;-74
2023/02/04 12:38:11;;;;;;;2.88;2.42;;;10.40;99.90;;;;;;4938233;28;98238;-74
2023/02/04 12:40:38;;;;;;;3.72;2.20;;;10.50;99.90;;;;;;4937939;28;92573;-74
2023/02/04 12:43:06;;;;;;;5.88;3.38;;;10.60;99.90;;;;;;4936994;28;93172;-73
2023/02/04 12:45:33;;;;;;;3.13;2.53;;;10.70;99.90;;;;;;4936608;28;95673;-74
2023/02/04 12:48:00;;;;;;;6.30;2.47;;;10.70;99.90;;;;;;4937537;28;95706;-74
2023/02/04 12:50:27;;;;;;;3.50;2.58;;;10.80;99.90;;;;;;4936583;28;92503;-74
2023/02/04 12:52:56;;;;;;;4.65;2.53;;;10.70;99.90;;;;;;4936407;28;93010;-74
2023/02/04 12:55:25;;;;;;;3.70;2.63;;;10.60;99.90;;;;;;4937679;28;93517;-73
2023/02/04 12:57:53;;;;;;;4.18;2.50;;;10.50;99.90;;;;;;4935754;28;93034;-74